THA112 VTBS-VQPR
Flight info
| Callsign | THA112 |
|---|---|
| Flight time | N/A |
| Altitude | 34000 |
| Route | TARED1E TARED G463 DAC W3 TEGAK/N0430F240 W3 SDP/N0462F350 R598 BOGOP BOGOP1B |
| Aircraft | A320/M-SDE3FGHIRWY/LB1 |
Departure
| Time | 2026-05-08 08:05 |
|---|---|
| Airport | Suvarnabhumi Airport (VTBS) |
Arrival
| Time | N/A |
|---|---|
| Airport | Paro International Airport (VQPR) |
| Time | Latitude | Longitude | Altitude | Speed | Heading |
|---|---|---|---|---|---|
| 2026-05-08 07:53 | 13.69063 | 100.75670 | 13 ft | 0 kts | 194° |
| 2026-05-08 07:58 | 13.69084 | 100.75676 | 13 ft | 4 kts | 193° |
| 2026-05-08 07:59 | 13.69110 | 100.75681 | 16 ft | 4 kts | 187° |
| 2026-05-08 07:59 | 13.69137 | 100.75682 | 14 ft | 4 kts | 165° |
| 2026-05-08 07:59 | 13.69154 | 100.75671 | 13 ft | 2 kts | 105° |
| 2026-05-08 07:59 | 13.69155 | 100.75670 | 13 ft | 0 kts | 104° |
| 2026-05-08 08:02 | 13.69145 | 100.75709 | 15 ft | 15 kts | 104° |
| 2026-05-08 08:02 | 13.69134 | 100.75749 | 13 ft | 1 kts | 107° |
| 2026-05-08 08:03 | 13.69126 | 100.75779 | 13 ft | 8 kts | 103° |
| 2026-05-08 08:03 | 13.69110 | 100.75842 | 13 ft | 9 kts | 104° |
| 2026-05-08 08:03 | 13.69095 | 100.75910 | 13 ft | 13 kts | 103° |
| 2026-05-08 08:03 | 13.69065 | 100.76023 | 13 ft | 19 kts | 106° |
| 2026-05-08 08:04 | 13.68971 | 100.76052 | 14 ft | 12 kts | 193° |
| 2026-05-08 08:04 | 13.68964 | 100.76050 | 14 ft | 0 kts | 193° |
| 2026-05-08 08:04 | 13.68949 | 100.76047 | 14 ft | 16 kts | 194° |
| 2026-05-08 08:04 | 13.68564 | 100.75945 | 16 ft | 96 kts | 194° |
| 2026-05-08 08:05 | 13.67704 | 100.75718 | 13 ft | 156 kts | 194° |
| 2026-05-08 08:05 | 13.66534 | 100.75402 | 239 ft | 185 kts | 196° |
| 2026-05-08 08:05 | 13.65252 | 100.75188 | 1002 ft | 191 kts | 183° |
| 2026-05-08 08:05 | 13.63903 | 100.75158 | 1444 ft | 201 kts | 180° |
| 2026-05-08 08:06 | 13.62430 | 100.75177 | 1691 ft | 223 kts | 179° |
| 2026-05-08 08:06 | 13.60856 | 100.75194 | 2346 ft | 227 kts | 178° |
| 2026-05-08 08:06 | 13.59243 | 100.75419 | 2807 ft | 245 kts | 169° |
| 2026-05-08 08:06 | 13.57529 | 100.75859 | 3312 ft | 260 kts | 164° |
| 2026-05-08 08:07 | 13.55784 | 100.76415 | 4084 ft | 264 kts | 162° |
| 2026-05-08 08:07 | 13.54019 | 100.76995 | 4880 ft | 268 kts | 163° |
| 2026-05-08 08:07 | 13.52229 | 100.77568 | 5664 ft | 271 kts | 163° |
| 2026-05-08 08:07 | 13.50410 | 100.78130 | 6441 ft | 274 kts | 164° |
| 2026-05-08 08:08 | 13.48529 | 100.78496 | 7184 ft | 277 kts | 178° |
| 2026-05-08 08:08 | 13.46604 | 100.78330 | 7916 ft | 280 kts | 193° |
| 2026-05-08 08:08 | 13.44791 | 100.77591 | 8621 ft | 283 kts | 214° |
| 2026-05-08 08:08 | 13.43412 | 100.76157 | 9301 ft | 287 kts | 240° |
| 2026-05-08 08:09 | 13.42805 | 100.74206 | 9865 ft | 292 kts | 267° |
| 2026-05-08 08:09 | 13.43084 | 100.72143 | 10010 ft | 298 kts | 284° |
| 2026-05-08 08:09 | 13.43630 | 100.69994 | 10027 ft | 325 kts | 284° |
| 2026-05-08 08:09 | 13.44235 | 100.67662 | 10028 ft | 349 kts | 284° |
| 2026-05-08 08:10 | 13.44869 | 100.65218 | 10025 ft | 357 kts | 284° |
| 2026-05-08 08:10 | 13.45506 | 100.62744 | 10025 ft | 359 kts | 285° |
| 2026-05-08 08:10 | 13.46513 | 100.60410 | 10027 ft | 360 kts | 303° |
| 2026-05-08 08:10 | 13.48221 | 100.58546 | 10026 ft | 360 kts | 323° |
| 2026-05-08 08:11 | 13.50421 | 100.57405 | 10026 ft | 361 kts | 343° |
| 2026-05-08 08:11 | 13.52905 | 100.57081 | 10028 ft | 362 kts | 1° |
| 2026-05-08 08:11 | 13.55460 | 100.57147 | 10029 ft | 362 kts | 1° |
| 2026-05-08 08:11 | 13.57949 | 100.57219 | 10025 ft | 362 kts | 1° |
| 2026-05-08 08:12 | 13.60469 | 100.57291 | 10028 ft | 363 kts | 1° |
| 2026-05-08 08:12 | 13.62992 | 100.57363 | 10024 ft | 363 kts | 1° |
| 2026-05-08 08:12 | 13.65512 | 100.57432 | 10024 ft | 363 kts | 1° |
| 2026-05-08 08:12 | 13.68041 | 100.57501 | 10182 ft | 366 kts | 1° |
| 2026-05-08 08:13 | 13.70586 | 100.57569 | 10851 ft | 367 kts | 1° |
| 2026-05-08 08:13 | 13.73153 | 100.57639 | 11458 ft | 370 kts | 1° |
| 2026-05-08 08:13 | 13.75729 | 100.57585 | 12030 ft | 373 kts | 353° |
| 2026-05-08 08:13 | 13.78275 | 100.57030 | 12600 ft | 376 kts | 341° |
| 2026-05-08 08:14 | 13.80687 | 100.55966 | 13152 ft | 378 kts | 330° |
| 2026-05-08 08:14 | 13.82947 | 100.54560 | 13693 ft | 381 kts | 328° |
| 2026-05-08 08:14 | 13.85216 | 100.53131 | 14224 ft | 384 kts | 328° |
| 2026-05-08 08:14 | 13.87504 | 100.51693 | 14734 ft | 387 kts | 328° |
| 2026-05-08 08:15 | 13.89788 | 100.50213 | 15221 ft | 390 kts | 323° |
| 2026-05-08 08:15 | 13.91822 | 100.48363 | 15699 ft | 392 kts | 311° |
| 2026-05-08 08:15 | 13.93443 | 100.46105 | 16166 ft | 394 kts | 299° |
| 2026-05-08 08:15 | 13.94565 | 100.43571 | 16635 ft | 396 kts | 287° |
| 2026-05-08 08:16 | 13.95170 | 100.40803 | 17101 ft | 398 kts | 277° |
| 2026-05-08 08:16 | 13.95562 | 100.37969 | 17565 ft | 401 kts | 277° |
| 2026-05-08 08:16 | 13.95958 | 100.35121 | 18012 ft | 404 kts | 278° |
| 2026-05-08 08:16 | 13.96361 | 100.32254 | 18490 ft | 406 kts | 278° |
| 2026-05-08 08:17 | 13.96771 | 100.29364 | 18950 ft | 409 kts | 278° |
| 2026-05-08 08:17 | 13.97249 | 100.26467 | 19391 ft | 412 kts | 283° |
| 2026-05-08 08:17 | 13.98162 | 100.23655 | 19826 ft | 416 kts | 293° |
| 2026-05-08 08:17 | 13.99541 | 100.21031 | 20257 ft | 419 kts | 303° |
| 2026-05-08 08:18 | 14.01171 | 100.18529 | 20670 ft | 421 kts | 303° |
| 2026-05-08 08:18 | 14.02255 | 100.16862 | 20942 ft | 423 kts | 303° |
| 2026-05-08 08:18 | 14.03893 | 100.14336 | 21322 ft | 425 kts | 303° |
| 2026-05-08 08:18 | 14.06042 | 100.11019 | 21811 ft | 429 kts | 303° |
| 2026-05-08 08:19 | 14.07702 | 100.08458 | 22169 ft | 431 kts | 303° |
| 2026-05-08 08:19 | 14.08828 | 100.06719 | 22411 ft | 432 kts | 303° |
| 2026-05-08 08:19 | 14.10499 | 100.04136 | 22752 ft | 435 kts | 303° |
| 2026-05-08 08:19 | 14.12727 | 100.00695 | 23203 ft | 438 kts | 303° |
| 2026-05-08 08:20 | 14.13851 | 99.98960 | 23419 ft | 439 kts | 303° |
| 2026-05-08 08:20 | 14.15552 | 99.96336 | 23742 ft | 441 kts | 303° |
| 2026-05-08 08:20 | 14.17261 | 99.93699 | 24060 ft | 443 kts | 303° |
| 2026-05-08 08:20 | 14.18975 | 99.91052 | 24372 ft | 445 kts | 303° |
| 2026-05-08 08:21 | 14.20702 | 99.88386 | 24678 ft | 447 kts | 303° |
| 2026-05-08 08:21 | 14.22434 | 99.85711 | 24979 ft | 450 kts | 303° |
| 2026-05-08 08:21 | 14.24173 | 99.83020 | 25289 ft | 452 kts | 303° |
| 2026-05-08 08:21 | 14.25918 | 99.80317 | 25595 ft | 453 kts | 303° |
| 2026-05-08 08:22 | 14.27638 | 99.77654 | 26019 ft | 452 kts | 303° |
| 2026-05-08 08:22 | 14.29379 | 99.74963 | 26451 ft | 451 kts | 303° |
| 2026-05-08 08:22 | 14.31118 | 99.72273 | 26882 ft | 450 kts | 303° |
| 2026-05-08 08:22 | 14.32856 | 99.69582 | 27282 ft | 449 kts | 303° |
| 2026-05-08 08:23 | 14.34585 | 99.66903 | 27694 ft | 449 kts | 303° |
| 2026-05-08 08:23 | 14.36312 | 99.64223 | 28105 ft | 448 kts | 303° |
| 2026-05-08 08:23 | 14.38035 | 99.61553 | 28501 ft | 447 kts | 303° |
| 2026-05-08 08:23 | 14.39756 | 99.58883 | 28908 ft | 446 kts | 303° |
| 2026-05-08 08:24 | 14.41476 | 99.56212 | 29303 ft | 446 kts | 303° |
| 2026-05-08 08:24 | 14.43186 | 99.53553 | 29701 ft | 445 kts | 303° |
| 2026-05-08 08:24 | 14.44735 | 99.50796 | 30076 ft | 444 kts | 297° |
| 2026-05-08 08:24 | 14.46158 | 99.47971 | 30453 ft | 443 kts | 297° |
| 2026-05-08 08:25 | 14.47578 | 99.45154 | 30828 ft | 442 kts | 297° |
| 2026-05-08 08:25 | 14.49000 | 99.42334 | 31195 ft | 442 kts | 297° |
| 2026-05-08 08:25 | 14.50417 | 99.39522 | 31557 ft | 441 kts | 297° |
| 2026-05-08 08:25 | 14.51832 | 99.36719 | 31923 ft | 440 kts | 297° |
| 2026-05-08 08:26 | 14.53245 | 99.33920 | 32286 ft | 440 kts | 297° |
| 2026-05-08 08:26 | 14.54657 | 99.31121 | 32644 ft | 439 kts | 297° |
| 2026-05-08 08:26 | 14.56065 | 99.28325 | 32998 ft | 438 kts | 297° |
| 2026-05-08 08:26 | 14.57451 | 99.25574 | 33345 ft | 438 kts | 297° |
| 2026-05-08 08:27 | 14.58855 | 99.22787 | 33691 ft | 437 kts | 297° |
| 2026-05-08 08:27 | 14.60257 | 99.20001 | 33961 ft | 437 kts | 297° |
| 2026-05-08 08:27 | 14.61661 | 99.17205 | 34017 ft | 441 kts | 297° |
| 2026-05-08 08:28 | 14.64532 | 99.11494 | 34032 ft | 454 kts | 297° |
| 2026-05-08 08:28 | 14.67458 | 99.05670 | 34026 ft | 458 kts | 297° |
| 2026-05-08 08:29 | 14.70394 | 98.99820 | 34024 ft | 459 kts | 297° |
| 2026-05-08 08:29 | 14.73333 | 98.93972 | 34024 ft | 459 kts | 297° |
| 2026-05-08 08:30 | 14.76268 | 98.88123 | 34022 ft | 459 kts | 297° |
| 2026-05-08 08:30 | 14.80639 | 98.79380 | 34029 ft | 459 kts | 297° |
| 2026-05-08 08:31 | 14.83573 | 98.73519 | 34023 ft | 459 kts | 297° |
| 2026-05-08 08:31 | 14.86510 | 98.67662 | 34023 ft | 459 kts | 297° |
| 2026-05-08 08:32 | 14.89438 | 98.61798 | 34031 ft | 459 kts | 297° |
| 2026-05-08 08:32 | 14.92360 | 98.55930 | 34028 ft | 459 kts | 297° |
| 2026-05-08 08:33 | 14.95284 | 98.50066 | 34030 ft | 459 kts | 297° |
| 2026-05-08 08:33 | 14.98190 | 98.44234 | 34030 ft | 459 kts | 297° |
| 2026-05-08 08:34 | 15.01119 | 98.38364 | 34023 ft | 459 kts | 297° |
| 2026-05-08 08:34 | 15.04050 | 98.32492 | 34032 ft | 459 kts | 297° |
| 2026-05-08 08:35 | 15.06968 | 98.26616 | 34034 ft | 459 kts | 297° |
| 2026-05-08 08:35 | 15.10328 | 98.21019 | 34027 ft | 459 kts | 310° |
| 2026-05-08 08:36 | 15.15091 | 98.16632 | 34027 ft | 460 kts | 322° |
| 2026-05-08 08:36 | 15.20121 | 98.12603 | 34026 ft | 460 kts | 322° |
| 2026-05-08 08:37 | 15.25177 | 98.08534 | 34029 ft | 460 kts | 322° |
| 2026-05-08 08:37 | 15.30238 | 98.04447 | 34034 ft | 461 kts | 321° |
| 2026-05-08 08:38 | 15.35297 | 98.00368 | 34036 ft | 461 kts | 322° |
| 2026-05-08 08:38 | 15.40361 | 97.96282 | 34044 ft | 461 kts | 322° |
| 2026-05-08 08:39 | 15.45392 | 97.92220 | 34043 ft | 461 kts | 322° |
| 2026-05-08 08:39 | 15.50454 | 97.88128 | 34045 ft | 461 kts | 322° |
| 2026-05-08 08:40 | 15.55516 | 97.84038 | 34043 ft | 461 kts | 321° |
| 2026-05-08 08:40 | 15.60580 | 97.79937 | 34032 ft | 461 kts | 322° |
| 2026-05-08 08:41 | 15.65652 | 97.75843 | 34043 ft | 461 kts | 322° |
| 2026-05-08 08:41 | 15.70707 | 97.71759 | 34042 ft | 461 kts | 322° |
| 2026-05-08 08:42 | 15.75728 | 97.67689 | 34041 ft | 461 kts | 321° |
| 2026-05-08 08:42 | 15.80773 | 97.63594 | 34031 ft | 461 kts | 321° |
| 2026-05-08 08:43 | 15.85823 | 97.59497 | 34034 ft | 461 kts | 321° |
| 2026-05-08 08:43 | 15.90875 | 97.55397 | 34038 ft | 460 kts | 321° |
| 2026-05-08 08:44 | 15.96013 | 97.51418 | 34030 ft | 460 kts | 324° |
| 2026-05-08 08:44 | 16.01292 | 97.47651 | 34025 ft | 460 kts | 326° |
| 2026-05-08 08:45 | 16.06555 | 97.43927 | 34032 ft | 460 kts | 325° |
| 2026-05-08 08:45 | 16.11809 | 97.40125 | 34026 ft | 461 kts | 324° |
| 2026-05-08 08:46 | 16.17051 | 97.36276 | 34030 ft | 461 kts | 324° |
| 2026-05-08 08:46 | 16.22291 | 97.32438 | 34028 ft | 461 kts | 324° |
| 2026-05-08 08:47 | 16.27545 | 97.28610 | 34029 ft | 461 kts | 324° |
| 2026-05-08 08:47 | 16.32793 | 97.24789 | 34025 ft | 461 kts | 324° |
| 2026-05-08 08:48 | 16.38048 | 97.20958 | 34029 ft | 460 kts | 324° |
| 2026-05-08 08:48 | 16.43293 | 97.17130 | 34031 ft | 460 kts | 324° |
| 2026-05-08 08:49 | 16.48495 | 97.13316 | 34025 ft | 460 kts | 324° |
| 2026-05-08 08:49 | 16.53735 | 97.09479 | 34024 ft | 460 kts | 324° |
| 2026-05-08 08:50 | 16.58980 | 97.05635 | 34026 ft | 461 kts | 324° |
| 2026-05-08 08:50 | 16.64226 | 97.01787 | 34026 ft | 461 kts | 324° |
| 2026-05-08 08:51 | 16.69473 | 96.97938 | 34028 ft | 461 kts | 324° |
| 2026-05-08 08:51 | 16.74720 | 96.94090 | 34035 ft | 461 kts | 324° |
| 2026-05-08 08:52 | 16.79969 | 96.90251 | 34035 ft | 461 kts | 324° |
| 2026-05-08 08:52 | 16.85210 | 96.86396 | 34030 ft | 461 kts | 324° |
| 2026-05-08 08:53 | 16.90408 | 96.82569 | 34033 ft | 461 kts | 324° |
| 2026-05-08 08:53 | 16.95649 | 96.78711 | 34030 ft | 461 kts | 324° |
| 2026-05-08 08:54 | 17.00885 | 96.74850 | 34026 ft | 461 kts | 324° |
| 2026-05-08 08:54 | 17.06124 | 96.70990 | 34028 ft | 461 kts | 324° |
| 2026-05-08 08:55 | 17.11363 | 96.67123 | 34033 ft | 461 kts | 324° |
| 2026-05-08 08:55 | 17.16601 | 96.63256 | 34028 ft | 461 kts | 324° |
| 2026-05-08 08:56 | 17.21837 | 96.59392 | 34034 ft | 461 kts | 324° |
| 2026-05-08 08:56 | 17.27078 | 96.55519 | 34033 ft | 461 kts | 324° |
| 2026-05-08 08:57 | 17.32268 | 96.51583 | 34029 ft | 460 kts | 319° |
| 2026-05-08 08:57 | 17.36918 | 96.47228 | 34033 ft | 460 kts | 317° |
| 2026-05-08 08:58 | 17.41684 | 96.42745 | 34028 ft | 460 kts | 317° |
| 2026-05-08 08:58 | 17.46443 | 96.38267 | 34028 ft | 460 kts | 317° |
| 2026-05-08 08:59 | 17.51210 | 96.33788 | 34029 ft | 460 kts | 317° |
| 2026-05-08 08:59 | 17.55938 | 96.29332 | 34028 ft | 460 kts | 317° |
| 2026-05-08 09:00 | 17.60691 | 96.24838 | 34027 ft | 460 kts | 317° |
| 2026-05-08 09:00 | 17.65451 | 96.20345 | 34025 ft | 461 kts | 317° |
| 2026-05-08 09:01 | 17.70216 | 96.15846 | 34030 ft | 461 kts | 317° |
| 2026-05-08 09:01 | 17.74976 | 96.11343 | 34034 ft | 461 kts | 317° |
| 2026-05-08 09:02 | 17.79737 | 96.06839 | 34034 ft | 461 kts | 317° |
| 2026-05-08 09:02 | 17.84509 | 96.02330 | 34038 ft | 461 kts | 317° |
| 2026-05-08 09:03 | 17.89239 | 95.97851 | 34035 ft | 461 kts | 317° |
| 2026-05-08 09:03 | 17.94002 | 95.93338 | 34034 ft | 461 kts | 317° |
| 2026-05-08 09:04 | 17.98763 | 95.88824 | 34044 ft | 461 kts | 317° |
| 2026-05-08 09:04 | 18.03515 | 95.84305 | 34033 ft | 461 kts | 317° |
| 2026-05-08 09:05 | 18.08272 | 95.79783 | 34037 ft | 461 kts | 317° |
| 2026-05-08 09:05 | 18.13024 | 95.75264 | 34034 ft | 461 kts | 317° |
| 2026-05-08 09:06 | 18.17776 | 95.70746 | 34037 ft | 461 kts | 317° |
| 2026-05-08 09:06 | 18.22528 | 95.66227 | 34038 ft | 461 kts | 317° |
| 2026-05-08 09:07 | 18.27279 | 95.61698 | 34037 ft | 461 kts | 317° |
| 2026-05-08 09:07 | 18.31993 | 95.57201 | 34028 ft | 461 kts | 317° |
| 2026-05-08 09:08 | 18.36740 | 95.52669 | 34031 ft | 460 kts | 317° |
| 2026-05-08 09:08 | 18.41481 | 95.48137 | 34034 ft | 460 kts | 317° |
| 2026-05-08 09:09 | 18.46229 | 95.43606 | 34027 ft | 460 kts | 318° |
| 2026-05-08 09:09 | 18.51052 | 95.39163 | 34031 ft | 461 kts | 319° |
| 2026-05-08 09:10 | 18.55913 | 95.34765 | 34035 ft | 461 kts | 319° |
| 2026-05-08 09:10 | 18.60768 | 95.30342 | 34036 ft | 461 kts | 319° |
| 2026-05-08 09:11 | 18.65606 | 95.25902 | 34037 ft | 461 kts | 318° |
| 2026-05-08 09:11 | 18.70438 | 95.21455 | 34036 ft | 461 kts | 319° |
| 2026-05-08 09:12 | 18.75270 | 95.17011 | 34038 ft | 461 kts | 318° |
| 2026-05-08 09:12 | 18.80070 | 95.12593 | 34036 ft | 461 kts | 319° |
| 2026-05-08 09:13 | 18.84902 | 95.08147 | 34036 ft | 461 kts | 319° |
| 2026-05-08 09:13 | 18.89736 | 95.03698 | 34043 ft | 461 kts | 319° |
| 2026-05-08 09:14 | 18.94574 | 94.99244 | 34036 ft | 461 kts | 318° |
| 2026-05-08 09:14 | 18.99407 | 94.94783 | 34033 ft | 461 kts | 318° |
| 2026-05-08 09:15 | 19.04236 | 94.90326 | 34035 ft | 461 kts | 318° |
| 2026-05-08 09:15 | 19.09070 | 94.85865 | 34044 ft | 461 kts | 318° |
| 2026-05-08 09:16 | 19.13082 | 94.82154 | 34035 ft | 461 kts | 318° |
| 2026-05-08 09:16 | 19.17903 | 94.77687 | 34038 ft | 461 kts | 318° |
| 2026-05-08 09:17 | 19.22728 | 94.73221 | 34033 ft | 461 kts | 318° |
| 2026-05-08 09:17 | 19.27551 | 94.68746 | 34040 ft | 461 kts | 318° |
| 2026-05-08 09:18 | 19.32319 | 94.64203 | 34035 ft | 461 kts | 317° |
| 2026-05-08 09:18 | 19.37000 | 94.59676 | 34035 ft | 461 kts | 317° |
| 2026-05-08 09:19 | 19.41708 | 94.55128 | 34035 ft | 461 kts | 317° |
| 2026-05-08 09:19 | 19.46452 | 94.50570 | 34036 ft | 461 kts | 317° |
| 2026-05-08 09:20 | 19.51303 | 94.46135 | 34036 ft | 461 kts | 327° |